sensor_id;sensor_type;location;lat;lon;timestamp;pressure;altitude;pressure_sealevel;temperature
42119;BMP280;27783;42.782;23.274;2024-01-11T00:00:48;96579.72;;;-7.89
42119;BMP280;27783;42.782;23.274;2024-01-11T00:03:13;96577.50;;;-8.12
42119;BMP280;27783;42.782;23.274;2024-01-11T00:05:39;96577.44;;;-7.86
42119;BMP280;27783;42.782;23.274;2024-01-11T00:08:04;96568.78;;;-7.80
42119;BMP280;27783;42.782;23.274;2024-01-11T00:10:30;96568.72;;;-8.20
42119;BMP280;27783;42.782;23.274;2024-01-11T00:12:56;96564.84;;;-7.97
42119;BMP280;27783;42.782;23.274;2024-01-11T00:15:22;96562.00;;;-7.65
42119;BMP280;27783;42.782;23.274;2024-01-11T00:17:48;96559.00;;;-7.57
42119;BMP280;27783;42.782;23.274;2024-01-11T00:20:14;96564.06;;;-7.62
42119;BMP280;27783;42.782;23.274;2024-01-11T00:22:39;96556.16;;;-7.61
42119;BMP280;27783;42.782;23.274;2024-01-11T00:25:07;96556.03;;;-7.40
42119;BMP280;27783;42.782;23.274;2024-01-11T00:27:33;96560.13;;;-7.39
42119;BMP280;27783;42.782;23.274;2024-01-11T00:29:59;96561.00;;;-7.64
42119;BMP280;27783;42.782;23.274;2024-01-11T00:32:25;96561.19;;;-7.35
42119;BMP280;27783;42.782;23.274;2024-01-11T00:34:59;96555.59;;;-7.27
42119;BMP280;27783;42.782;23.274;2024-01-11T00:37:24;96559.13;;;-7.38
42119;BMP280;27783;42.782;23.274;2024-01-11T00:39:52;96549.63;;;-7.37
42119;BMP280;27783;42.782;23.274;2024-01-11T00:42:17;96547.16;;;-7.28
42119;BMP280;27783;42.782;23.274;2024-01-11T00:44:43;96549.47;;;-7.26
42119;BMP280;27783;42.782;23.274;2024-01-11T00:47:10;96544.06;;;-7.30
42119;BMP280;27783;42.782;23.274;2024-01-11T00:49:35;96545.34;;;-7.32
42119;BMP280;27783;42.782;23.274;2024-01-11T00:52:01;96541.00;;;-7.31
42119;BMP280;27783;42.782;23.274;2024-01-11T00:54:26;96533.88;;;-7.20
42119;BMP280;27783;42.782;23.274;2024-01-11T00:56:52;96536.00;;;-7.52
42119;BMP280;27783;42.782;23.274;2024-01-11T00:59:17;96533.81;;;-7.70
42119;BMP280;27783;42.782;23.274;2024-01-11T01:01:49;96532.63;;;-7.58
42119;BMP280;27783;42.782;23.274;2024-01-11T01:04:15;96535.69;;;-7.61
42119;BMP280;27783;42.782;23.274;2024-01-11T01:06:41;96534.25;;;-7.82
42119;BMP280;27783;42.782;23.274;2024-01-11T01:09:06;96540.16;;;-8.13
42119;BMP280;27783;42.782;23.274;2024-01-11T01:11:32;96540.94;;;-8.12
42119;BMP280;27783;42.782;23.274;2024-01-11T01:13:57;96537.22;;;-8.26
42119;BMP280;27783;42.782;23.274;2024-01-11T01:16:22;96534.97;;;-8.48
42119;BMP280;27783;42.782;23.274;2024-01-11T01:18:48;96539.06;;;-8.47
42119;BMP280;27783;42.782;23.274;2024-01-11T01:21:13;96543.00;;;-8.40
42119;BMP280;27783;42.782;23.274;2024-01-11T01:23:39;96540.25;;;-8.33
42119;BMP280;27783;42.782;23.274;2024-01-11T01:26:04;96539.50;;;-8.29
42119;BMP280;27783;42.782;23.274;2024-01-11T01:28:29;96534.44;;;-8.50
42119;BMP280;27783;42.782;23.274;2024-01-11T01:30:55;96537.00;;;-8.50
42119;BMP280;27783;42.782;23.274;2024-01-11T01:33:21;96537.81;;;-8.45
42119;BMP280;27783;42.782;23.274;2024-01-11T01:35:46;96525.72;;;-8.28
42119;BMP280;27783;42.782;23.274;2024-01-11T01:38:12;96521.03;;;-8.10
42119;BMP280;27783;42.782;23.274;2024-01-11T01:40:39;96529.16;;;-8.13
42119;BMP280;27783;42.782;23.274;2024-01-11T01:43:18;96515.06;;;-8.15
42119;BMP280;27783;42.782;23.274;2024-01-11T01:45:45;96512.56;;;-8.41
42119;BMP280;27783;42.782;23.274;2024-01-11T01:48:10;96505.97;;;-8.32
42119;BMP280;27783;42.782;23.274;2024-01-11T01:50:36;96515.97;;;-8.31
42119;BMP280;27783;42.782;23.274;2024-01-11T01:53:02;96511.16;;;-8.28
42119;BMP280;27783;42.782;23.274;2024-01-11T01:55:29;96507.31;;;-8.30
42119;BMP280;27783;42.782;23.274;2024-01-11T01:57:55;96503.22;;;-8.26
42119;BMP280;27783;42.782;23.274;2024-01-11T02:00:22;96491.38;;;-8.06
42119;BMP280;27783;42.782;23.274;2024-01-11T02:03:04;96492.25;;;-7.91
42119;BMP280;27783;42.782;23.274;2024-01-11T02:05:30;96493.25;;;-7.92
42119;BMP280;27783;42.782;23.274;2024-01-11T02:07:57;96494.81;;;-7.86
42119;BMP280;27783;42.782;23.274;2024-01-11T02:10:24;96497.88;;;-7.89
42119;BMP280;27783;42.782;23.274;2024-01-11T02:12:51;96495.38;;;-7.80
42119;BMP280;27783;42.782;23.274;2024-01-11T02:15:18;96496.16;;;-7.79
42119;BMP280;27783;42.782;23.274;2024-01-11T02:17:44;96482.38;;;-7.73
42119;BMP280;27783;42.782;23.274;2024-01-11T02:20:10;96483.56;;;-7.90
42119;BMP280;27783;42.782;23.274;2024-01-11T02:22:48;96477.94;;;-7.87
42119;BMP280;27783;42.782;23.274;2024-01-11T02:25:20;96482.53;;;-7.89
42119;BMP280;27783;42.782;23.274;2024-01-11T02:27:47;96486.03;;;-8.05
42119;BMP280;27783;42.782;23.274;2024-01-11T02:30:14;96480.31;;;-8.16
42119;BMP280;27783;42.782;23.274;2024-01-11T02:32:43;96485.44;;;-8.73
42119;BMP280;27783;42.782;23.274;2024-01-11T02:35:14;96487.69;;;-8.50
42119;BMP280;27783;42.782;23.274;2024-01-11T02:37:40;96491.41;;;-8.32
42119;BMP280;27783;42.782;23.274;2024-01-11T02:40:13;96488.16;;;-8.23
42119;BMP280;27783;42.782;23.274;2024-01-11T02:42:41;96484.47;;;-8.11
42119;BMP280;27783;42.782;23.274;2024-01-11T02:45:07;96490.50;;;-8.21
42119;BMP280;27783;42.782;23.274;2024-01-11T02:47:33;96476.84;;;-8.01
42119;BMP280;27783;42.782;23.274;2024-01-11T02:49:59;96479.16;;;-7.99
42119;BMP280;27783;42.782;23.274;2024-01-11T02:52:25;96464.56;;;-8.04
42119;BMP280;27783;42.782;23.274;2024-01-11T02:54:57;96479.72;;;-8.28
42119;BMP280;27783;42.782;23.274;2024-01-11T02:57:22;96476.78;;;-8.41
42119;BMP280;27783;42.782;23.274;2024-01-11T02:59:49;96474.81;;;-8.60
42119;BMP280;27783;42.782;23.274;2024-01-11T03:02:14;96476.25;;;-8.69
42119;BMP280;27783;42.782;23.274;2024-01-11T03:04:41;96478.25;;;-8.76
42119;BMP280;27783;42.782;23.274;2024-01-11T03:07:06;96480.44;;;-8.63
42119;BMP280;27783;42.782;23.274;2024-01-11T03:09:41;96473.47;;;-8.67
42119;BMP280;27783;42.782;23.274;2024-01-11T03:12:07;96473.75;;;-8.64
42119;BMP280;27783;42.782;23.274;2024-01-11T03:14:33;96474.72;;;-8.44
42119;BMP280;27783;42.782;23.274;2024-01-11T03:16:59;96465.06;;;-8.37
42119;BMP280;27783;42.782;23.274;2024-01-11T03:19:27;96466.72;;;-8.78
42119;BMP280;27783;42.782;23.274;2024-01-11T03:21:59;96468.53;;;-8.48
42119;BMP280;27783;42.782;23.274;2024-01-11T03:24:28;96471.78;;;-8.57
42119;BMP280;27783;42.782;23.274;2024-01-11T03:26:53;96469.13;;;-8.67
42119;BMP280;27783;42.782;23.274;2024-01-11T03:29:20;96467.41;;;-8.62
42119;BMP280;27783;42.782;23.274;2024-01-11T03:31:45;96468.22;;;-8.56
42119;BMP280;27783;42.782;23.274;2024-01-11T03:34:22;96465.97;;;-8.53
42119;BMP280;27783;42.782;23.274;2024-01-11T03:36:50;96467.38;;;-8.36
42119;BMP280;27783;42.782;23.274;2024-01-11T03:39:16;96461.88;;;-8.23
42119;BMP280;27783;42.782;23.274;2024-01-11T03:41:45;96460.06;;;-8.53
42119;BMP280;27783;42.782;23.274;2024-01-11T03:44:12;96456.22;;;-8.81
42119;BMP280;27783;42.782;23.274;2024-01-11T03:46:37;96452.38;;;-8.84
42119;BMP280;27783;42.782;23.274;2024-01-11T03:49:04;96459.75;;;-8.87
42119;BMP280;27783;42.782;23.274;2024-01-11T03:51:29;96459.78;;;-8.57
42119;BMP280;27783;42.782;23.274;2024-01-11T03:53:56;96459.38;;;-8.44
42119;BMP280;27783;42.782;23.274;2024-01-11T03:56:21;96455.06;;;-8.44
42119;BMP280;27783;42.782;23.274;2024-01-11T03:58:47;96451.94;;;-8.46
42119;BMP280;27783;42.782;23.274;2024-01-11T04:01:14;96445.06;;;-8.76
42119;BMP280;27783;42.782;23.274;2024-01-11T04:03:42;96452.25;;;-8.68
42119;BMP280;27783;42.782;23.274;2024-01-11T04:06:07;96449.13;;;-8.75
42119;BMP280;27783;42.782;23.274;2024-01-11T04:08:32;96448.72;;;-8.67
42119;BMP280;27783;42.782;23.274;2024-01-11T04:11:03;96459.94;;;-8.68
42119;BMP280;27783;42.782;23.274;2024-01-11T04:13:37;96443.41;;;-8.86
42119;BMP280;27783;42.782;23.274;2024-01-11T04:16:06;96447.50;;;-8.85
42119;BMP280;27783;42.782;23.274;2024-01-11T04:18:35;96446.19;;;-8.62
42119;BMP280;27783;42.782;23.274;2024-01-11T04:21:00;96448.59;;;-8.51
42119;BMP280;27783;42.782;23.274;2024-01-11T04:23:25;96442.19;;;-8.53
42119;BMP280;27783;42.782;23.274;2024-01-11T04:25:52;96437.84;;;-8.53
42119;BMP280;27783;42.782;23.274;2024-01-11T04:28:17;96434.06;;;-8.46
42119;BMP280;27783;42.782;23.274;2024-01-11T04:30:44;96425.16;;;-8.43
42119;BMP280;27783;42.782;23.274;2024-01-11T04:33:10;96429.78;;;-8.40
42119;BMP280;27783;42.782;23.274;2024-01-11T04:35:36;96427.03;;;-8.34
42119;BMP280;27783;42.782;23.274;2024-01-11T04:38:02;96428.34;;;-8.27
42119;BMP280;27783;42.782;23.274;2024-01-11T04:40:29;96437.25;;;-8.29
42119;BMP280;27783;42.782;23.274;2024-01-11T04:42:54;96443.44;;;-8.25
42119;BMP280;27783;42.782;23.274;2024-01-11T04:45:20;96441.25;;;-8.43
42119;BMP280;27783;42.782;23.274;2024-01-11T04:47:46;96444.50;;;-8.52
42119;BMP280;27783;42.782;23.274;2024-01-11T04:50:12;96440.22;;;-8.72
42119;BMP280;27783;42.782;23.274;2024-01-11T04:52:40;96453.38;;;-8.59
42119;BMP280;27783;42.782;23.274;2024-01-11T04:55:05;96443.34;;;-8.65
42119;BMP280;27783;42.782;23.274;2024-01-11T04:57:32;96449.72;;;-8.68
42119;BMP280;27783;42.782;23.274;2024-01-11T04:59:57;96447.66;;;-8.71
42119;BMP280;27783;42.782;23.274;2024-01-11T05:02:23;96454.41;;;-8.60
42119;BMP280;27783;42.782;23.274;2024-01-11T05:04:50;96445.97;;;-8.86
42119;BMP280;27783;42.782;23.274;2024-01-11T05:07:27;96443.06;;;-8.95
42119;BMP280;27783;42.782;23.274;2024-01-11T05:09:53;96442.25;;;-9.00
42119;BMP280;27783;42.782;23.274;2024-01-11T05:12:19;96441.19;;;-9.04
42119;BMP280;27783;42.782;23.274;2024-01-11T05:14:46;96433.84;;;-9.21
42119;BMP280;27783;42.782;23.274;2024-01-11T05:17:13;96441.47;;;-9.26
42119;BMP280;27783;42.782;23.274;2024-01-11T05:19:45;96430.50;;;-9.01
42119;BMP280;27783;42.782;23.274;2024-01-11T05:22:11;96438.69;;;-8.99
42119;BMP280;27783;42.782;23.274;2024-01-11T05:24:37;96436.38;;;-8.75
42119;BMP280;27783;42.782;23.274;2024-01-11T05:27:03;96423.66;;;-8.70
42119;BMP280;27783;42.782;23.274;2024-01-11T05:29:28;96424.81;;;-8.56
42119;BMP280;27783;42.782;23.274;2024-01-11T05:31:54;96421.66;;;-8.63
42119;BMP280;27783;42.782;23.274;2024-01-11T05:34:20;96425.22;;;-8.64
42119;BMP280;27783;42.782;23.274;2024-01-11T05:36:45;96416.59;;;-8.58
42119;BMP280;27783;42.782;23.274;2024-01-11T05:39:10;96420.06;;;-8.99
42119;BMP280;27783;42.782;23.274;2024-01-11T05:41:36;96422.53;;;-8.79
42119;BMP280;27783;42.782;23.274;2024-01-11T05:44:01;96423.22;;;-8.88
42119;BMP280;27783;42.782;23.274;2024-01-11T05:46:27;96416.41;;;-8.82
42119;BMP280;27783;42.782;23.274;2024-01-11T05:48:52;96414.16;;;-8.74
42119;BMP280;27783;42.782;23.274;2024-01-11T05:51:18;96410.06;;;-9.01
42119;BMP280;27783;42.782;23.274;2024-01-11T05:53:43;96411.63;;;-9.00
42119;BMP280;27783;42.782;23.274;2024-01-11T05:56:09;96408.25;;;-9.05
42119;BMP280;27783;42.782;23.274;2024-01-11T05:58:35;96408.47;;;-8.81
42119;BMP280;27783;42.782;23.274;2024-01-11T06:01:02;96409.03;;;-8.79
42119;BMP280;27783;42.782;23.274;2024-01-11T06:03:27;96404.91;;;-8.80
42119;BMP280;27783;42.782;23.274;2024-01-11T06:05:53;96398.13;;;-8.65
42119;BMP280;27783;42.782;23.274;2024-01-11T06:08:18;96399.25;;;-8.56
42119;BMP280;27783;42.782;23.274;2024-01-11T06:10:44;96396.72;;;-8.51
42119;BMP280;27783;42.782;23.274;2024-01-11T06:13:09;96398.28;;;-8.46
42119;BMP280;27783;42.782;23.274;2024-01-11T06:15:35;96401.66;;;-8.40
42119;BMP280;27783;42.782;23.274;2024-01-11T06:18:00;96392.25;;;-8.35
42119;BMP280;27783;42.782;23.274;2024-01-11T06:20:25;96388.13;;;-8.71
42119;BMP280;27783;42.782;23.274;2024-01-11T06:22:51;96390.41;;;-8.75
42119;BMP280;27783;42.782;23.274;2024-01-11T06:25:17;96389.75;;;-8.61
42119;BMP280;27783;42.782;23.274;2024-01-11T06:27:43;96390.91;;;-8.42
42119;BMP280;27783;42.782;23.274;2024-01-11T06:30:09;96389.47;;;-8.29
42119;BMP280;27783;42.782;23.274;2024-01-11T06:32:34;96394.88;;;-8.25
42119;BMP280;27783;42.782;23.274;2024-01-11T06:35:00;96384.00;;;-8.47
42119;BMP280;27783;42.782;23.274;2024-01-11T06:37:25;96384.22;;;-8.79
42119;BMP280;27783;42.782;23.274;2024-01-11T06:39:51;96382.59;;;-8.59
42119;BMP280;27783;42.782;23.274;2024-01-11T06:42:16;96386.00;;;-8.48
42119;BMP280;27783;42.782;23.274;2024-01-11T06:44:42;96384.38;;;-8.29
42119;BMP280;27783;42.782;23.274;2024-01-11T06:47:07;96381.38;;;-8.16
42119;BMP280;27783;42.782;23.274;2024-01-11T06:49:37;96382.75;;;-8.04
42119;BMP280;27783;42.782;23.274;2024-01-11T06:52:03;96380.25;;;-7.84
42119;BMP280;27783;42.782;23.274;2024-01-11T06:54:29;96379.53;;;-7.75
42119;BMP280;27783;42.782;23.274;2024-01-11T06:56:56;96381.34;;;-7.71
42119;BMP280;27783;42.782;23.274;2024-01-11T06:59:21;96381.84;;;-7.74
42119;BMP280;27783;42.782;23.274;2024-01-11T07:01:48;96385.69;;;-7.71
42119;BMP280;27783;42.782;23.274;2024-01-11T07:04:14;96381.13;;;-7.64
42119;BMP280;27783;42.782;23.274;2024-01-11T07:06:40;96371.94;;;-7.61
42119;BMP280;27783;42.782;23.274;2024-01-11T07:09:06;96390.03;;;-7.67
42119;BMP280;27783;42.782;23.274;2024-01-11T07:11:31;96383.16;;;-7.66
42119;BMP280;27783;42.782;23.274;2024-01-11T07:13:57;96389.31;;;-7.63
42119;BMP280;27783;42.782;23.274;2024-01-11T07:16:23;96376.06;;;-7.50
42119;BMP280;27783;42.782;23.274;2024-01-11T07:18:49;96379.19;;;-7.33
42119;BMP280;27783;42.782;23.274;2024-01-11T07:21:23;96374.63;;;-7.07
42119;BMP280;27783;42.782;23.274;2024-01-11T07:23:55;96376.19;;;-7.11
42119;BMP280;27783;42.782;23.274;2024-01-11T07:26:20;96376.47;;;-6.98
42119;BMP280;27783;42.782;23.274;2024-01-11T07:28:47;96380.81;;;-6.84
42119;BMP280;27783;42.782;23.274;2024-01-11T07:31:13;96365.22;;;-6.68
42119;BMP280;27783;42.782;23.274;2024-01-11T07:33:39;96365.72;;;-6.47
42119;BMP280;27783;42.782;23.274;2024-01-11T07:36:05;96374.97;;;-6.50
42119;BMP280;27783;42.782;23.274;2024-01-11T07:38:31;96364.19;;;-6.52
42119;BMP280;27783;42.782;23.274;2024-01-11T07:40:57;96361.34;;;-6.22
42119;BMP280;27783;42.782;23.274;2024-01-11T07:43:22;96373.94;;;-6.45
42119;BMP280;27783;42.782;23.274;2024-01-11T07:45:47;96365.97;;;-6.19
42119;BMP280;27783;42.782;23.274;2024-01-11T07:48:13;96360.03;;;-6.00
42119;BMP280;27783;42.782;23.274;2024-01-11T07:50:38;96366.22;;;-6.06
42119;BMP280;27783;42.782;23.274;2024-01-11T07:53:03;96364.91;;;-5.94
42119;BMP280;27783;42.782;23.274;2024-01-11T07:55:30;96355.88;;;-5.82
42119;BMP280;27783;42.782;23.274;2024-01-11T07:57:56;96351.41;;;-5.57
42119;BMP280;27783;42.782;23.274;2024-01-11T08:00:22;96357.88;;;-5.64
42119;BMP280;27783;42.782;23.274;2024-01-11T08:02:47;96352.13;;;-5.51
42119;BMP280;27783;42.782;23.274;2024-01-11T08:05:12;96351.59;;;-5.44
42119;BMP280;27783;42.782;23.274;2024-01-11T08:07:38;96349.94;;;-5.20
42119;BMP280;27783;42.782;23.274;2024-01-11T08:10:03;96338.50;;;-4.95
42119;BMP280;27783;42.782;23.274;2024-01-11T08:12:29;96352.94;;;-5.04
42119;BMP280;27783;42.782;23.274;2024-01-11T08:14:55;96342.88;;;-4.63
42119;BMP280;27783;42.782;23.274;2024-01-11T08:17:21;96331.03;;;-4.59
42119;BMP280;27783;42.782;23.274;2024-01-11T08:19:46;96336.72;;;-4.62
42119;BMP280;27783;42.782;23.274;2024-01-11T08:22:12;96333.50;;;-4.45
42119;BMP280;27783;42.782;23.274;2024-01-11T08:24:37;96335.53;;;-4.47
42119;BMP280;27783;42.782;23.274;2024-01-11T08:27:03;96334.84;;;-4.01
42119;BMP280;27783;42.782;23.274;2024-01-11T08:29:29;96328.25;;;-4.35
42119;BMP280;27783;42.782;23.274;2024-01-11T08:31:55;96325.16;;;-4.37
42119;BMP280;27783;42.782;23.274;2024-01-11T08:34:21;96328.66;;;-4.23
42119;BMP280;27783;42.782;23.274;2024-01-11T08:36:47;96332.53;;;-4.26
42119;BMP280;27783;42.782;23.274;2024-01-11T08:39:13;96336.94;;;-4.31
42119;BMP280;27783;42.782;23.274;2024-01-11T08:41:40;96336.03;;;-4.17
42119;BMP280;27783;42.782;23.274;2024-01-11T08:44:07;96336.81;;;-4.16
42119;BMP280;27783;42.782;23.274;2024-01-11T08:46:32;96327.47;;;-4.08
42119;BMP280;27783;42.782;23.274;2024-01-11T08:48:59;96325.94;;;-4.09
42119;BMP280;27783;42.782;23.274;2024-01-11T08:51:25;96321.06;;;-3.87
42119;BMP280;27783;42.782;23.274;2024-01-11T08:53:51;96315.38;;;-3.84
42119;BMP280;27783;42.782;23.274;2024-01-11T08:56:20;96314.28;;;-3.56
42119;BMP280;27783;42.782;23.274;2024-01-11T08:58:46;96310.78;;;-3.87
42119;BMP280;27783;42.782;23.274;2024-01-11T09:01:13;96304.97;;;-3.75
42119;BMP280;27783;42.782;23.274;2024-01-11T09:03:38;96301.44;;;-3.61
42119;BMP280;27783;42.782;23.274;2024-01-11T09:06:04;96304.28;;;-3.21
42119;BMP280;27783;42.782;23.274;2024-01-11T09:08:30;96296.41;;;-3.48
42119;BMP280;27783;42.782;23.274;2024-01-11T09:10:56;96287.09;;;-3.08
42119;BMP280;27783;42.782;23.274;2024-01-11T09:13:21;96288.22;;;-2.65
42119;BMP280;27783;42.782;23.274;2024-01-11T09:15:46;96283.28;;;-2.04
42119;BMP280;27783;42.782;23.274;2024-01-11T09:18:12;96275.81;;;-2.63
42119;BMP280;27783;42.782;23.274;2024-01-11T09:20:37;96267.97;;;-2.71
42119;BMP280;27783;42.782;23.274;2024-01-11T09:23:03;96271.06;;;-2.87
42119;BMP280;27783;42.782;23.274;2024-01-11T09:25:31;96263.38;;;-2.74
42119;BMP280;27783;42.782;23.274;2024-01-11T09:27:57;96266.88;;;-2.52
42119;BMP280;27783;42.782;23.274;2024-01-11T09:30:22;96264.44;;;-2.62
42119;BMP280;27783;42.782;23.274;2024-01-11T09:32:47;96261.97;;;-2.22
42119;BMP280;27783;42.782;23.274;2024-01-11T09:35:13;96257.09;;;-1.58
42119;BMP280;27783;42.782;23.274;2024-01-11T09:37:40;96253.94;;;-1.55
42119;BMP280;27783;42.782;23.274;2024-01-11T09:40:07;96244.47;;;-1.86
42119;BMP280;27783;42.782;23.274;2024-01-11T09:42:39;96228.91;;;-1.33
42119;BMP280;27783;42.782;23.274;2024-01-11T09:45:10;96225.38;;;-1.37
42119;BMP280;27783;42.782;23.274;2024-01-11T09:47:38;96224.00;;;-1.35
42119;BMP280;27783;42.782;23.274;2024-01-11T09:50:05;96218.09;;;-1.35
42119;BMP280;27783;42.782;23.274;2024-01-11T09:52:30;96212.78;;;-0.96
42119;BMP280;27783;42.782;23.274;2024-01-11T09:55:02;96207.91;;;-1.19
42119;BMP280;27783;42.782;23.274;2024-01-11T09:57:31;96206.16;;;-0.59
42119;BMP280;27783;42.782;23.274;2024-01-11T10:00:03;96203.13;;;-1.25
42119;BMP280;27783;42.782;23.274;2024-01-11T10:02:32;96204.91;;;-0.91
42119;BMP280;27783;42.782;23.274;2024-01-11T10:04:58;96192.81;;;-0.23
42119;BMP280;27783;42.782;23.274;2024-01-11T10:07:24;96185.31;;;0.05
42119;BMP280;27783;42.782;23.274;2024-01-11T10:09:50;96184.41;;;-0.29
42119;BMP280;27783;42.782;23.274;2024-01-11T10:12:20;96181.03;;;-0.67
42119;BMP280;27783;42.782;23.274;2024-01-11T10:14:49;96177.69;;;-0.59
42119;BMP280;27783;42.782;23.274;2024-01-11T10:17:15;96180.31;;;-1.02
42119;BMP280;27783;42.782;23.274;2024-01-11T10:19:40;96161.25;;;-0.33
42119;BMP280;27783;42.782;23.274;2024-01-11T10:22:06;96164.41;;;0.01
42119;BMP280;27783;42.782;23.274;2024-01-11T10:24:33;96151.31;;;-0.40
42119;BMP280;27783;42.782;23.274;2024-01-11T10:27:00;96140.75;;;-0.51
42119;BMP280;27783;42.782;23.274;2024-01-11T10:29:33;96141.09;;;-0.45
42119;BMP280;27783;42.782;23.274;2024-01-11T10:32:00;96139.34;;;-0.19
42119;BMP280;27783;42.782;23.274;2024-01-11T10:34:27;96131.88;;;0.66
42119;BMP280;27783;42.782;23.274;2024-01-11T10:36:53;96131.72;;;0.38
42119;BMP280;27783;42.782;23.274;2024-01-11T10:39:24;96122.50;;;-0.00
42119;BMP280;27783;42.782;23.274;2024-01-11T10:41:52;96116.13;;;1.04
42119;BMP280;27783;42.782;23.274;2024-01-11T10:44:21;96109.66;;;1.35
42119;BMP280;27783;42.782;23.274;2024-01-11T10:46:49;96109.41;;;1.12
42119;BMP280;27783;42.782;23.274;2024-01-11T10:49:16;96111.06;;;1.16
42119;BMP280;27783;42.782;23.274;2024-01-11T10:51:45;96102.28;;;0.59
42119;BMP280;27783;42.782;23.274;2024-01-11T10:54:12;96093.59;;;0.72
42119;BMP280;27783;42.782;23.274;2024-01-11T10:56:40;96088.50;;;1.00
42119;BMP280;27783;42.782;23.274;2024-01-11T10:59:10;96074.69;;;0.55
42119;BMP280;27783;42.782;23.274;2024-01-11T11:01:36;96080.00;;;0.66
42119;BMP280;27783;42.782;23.274;2024-01-11T11:04:02;96064.00;;;1.26
42119;BMP280;27783;42.782;23.274;2024-01-11T11:06:29;96060.53;;;1.14
42119;BMP280;27783;42.782;23.274;2024-01-11T11:08:55;96055.66;;;1.49
42119;BMP280;27783;42.782;23.274;2024-01-11T11:11:23;96050.19;;;1.05
42119;BMP280;27783;42.782;23.274;2024-01-11T11:13:52;96040.81;;;1.13
42119;BMP280;27783;42.782;23.274;2024-01-11T11:16:17;96029.97;;;1.55
42119;BMP280;27783;42.782;23.274;2024-01-11T11:18:43;96034.56;;;2.06
42119;BMP280;27783;42.782;23.274;2024-01-11T11:21:10;96017.78;;;1.76
42119;BMP280;27783;42.782;23.274;2024-01-11T11:23:37;96014.53;;;2.07
42119;BMP280;27783;42.782;23.274;2024-01-11T11:26:06;96008.38;;;1.63
42119;BMP280;27783;42.782;23.274;2024-01-11T11:28:34;95996.72;;;1.97
42119;BMP280;27783;42.782;23.274;2024-01-11T11:31:02;95991.13;;;2.58
42119;BMP280;27783;42.782;23.274;2024-01-11T11:33:28;95983.41;;;2.93
42119;BMP280;27783;42.782;23.274;2024-01-11T11:35:57;95981.41;;;1.96
42119;BMP280;27783;42.782;23.274;2024-01-11T11:38:29;95969.06;;;2.87
42119;BMP280;27783;42.782;23.274;2024-01-11T11:40:56;95982.69;;;2.10
42119;BMP280;27783;42.782;23.274;2024-01-11T11:43:22;95977.63;;;2.45
42119;BMP280;27783;42.782;23.274;2024-01-11T11:45:49;95967.56;;;2.86
42119;BMP280;27783;42.782;23.274;2024-01-11T11:53:33;95959.47;;;2.99
42119;BMP280;27783;42.782;23.274;2024-01-11T11:56:01;95955.34;;;2.55
42119;BMP280;27783;42.782;23.274;2024-01-11T11:58:31;95951.69;;;2.68
42119;BMP280;27783;42.782;23.274;2024-01-11T12:00:59;95945.03;;;3.02
42119;BMP280;27783;42.782;23.274;2024-01-11T12:03:30;95934.16;;;2.88
42119;BMP280;27783;42.782;23.274;2024-01-11T12:05:57;95915.44;;;3.18
42119;BMP280;27783;42.782;23.274;2024-01-11T12:08:32;95912.16;;;3.32
42119;BMP280;27783;42.782;23.274;2024-01-11T12:10:58;95906.63;;;3.34
42119;BMP280;27783;42.782;23.274;2024-01-11T12:13:25;95908.25;;;3.38
42119;BMP280;27783;42.782;23.274;2024-01-11T12:15:51;95894.97;;;4.05
42119;BMP280;27783;42.782;23.274;2024-01-11T12:18:18;95886.53;;;4.38
42119;BMP280;27783;42.782;23.274;2024-01-11T12:20:45;95882.88;;;4.69
42119;BMP280;27783;42.782;23.274;2024-01-11T12:23:11;95879.53;;;4.83
42119;BMP280;27783;42.782;23.274;2024-01-11T12:25:40;95882.13;;;4.68
42119;BMP280;27783;42.782;23.274;2024-01-11T12:28:06;95877.16;;;4.79
42119;BMP280;27783;42.782;23.274;2024-01-11T12:30:31;95873.47;;;4.80
42119;BMP280;27783;42.782;23.274;2024-01-11T12:32:57;95870.59;;;4.69
42119;BMP280;27783;42.782;23.274;2024-01-11T12:35:22;95862.41;;;4.71
42119;BMP280;27783;42.782;23.274;2024-01-11T12:38:05;95864.53;;;4.81
42119;BMP280;27783;42.782;23.274;2024-01-11T12:40:35;95857.88;;;4.83
42119;BMP280;27783;42.782;23.274;2024-01-11T12:43:03;95856.19;;;4.90
42119;BMP280;27783;42.782;23.274;2024-01-11T12:45:29;95853.50;;;4.72
42119;BMP280;27783;42.782;23.274;2024-01-11T12:47:55;95853.38;;;5.14
42119;BMP280;27783;42.782;23.274;2024-01-11T12:50:23;95846.75;;;5.49
42119;BMP280;27783;42.782;23.274;2024-01-11T12:53:24;95848.97;;;5.17
42119;BMP280;27783;42.782;23.274;2024-01-11T12:56:03;95843.44;;;5.04
42119;BMP280;27783;42.782;23.274;2024-01-11T12:58:33;95842.72;;;5.03
42119;BMP280;27783;42.782;23.274;2024-01-11T13:00:59;95840.19;;;5.07
42119;BMP280;27783;42.782;23.274;2024-01-11T13:03:25;95833.91;;;5.26
42119;BMP280;27783;42.782;23.274;2024-01-11T13:05:52;95833.53;;;5.28
42119;BMP280;27783;42.782;23.274;2024-01-11T13:08:18;95832.75;;;5.09
42119;BMP280;27783;42.782;23.274;2024-01-11T13:10:43;95831.50;;;4.73
42119;BMP280;27783;42.782;23.274;2024-01-11T13:13:08;95828.00;;;4.81
42119;BMP280;27783;42.782;23.274;2024-01-11T13:15:34;95822.63;;;5.07
42119;BMP280;27783;42.782;23.274;2024-01-11T13:18:01;95824.19;;;4.93
42119;BMP280;27783;42.782;23.274;2024-01-11T13:20:28;95818.44;;;4.88
42119;BMP280;27783;42.782;23.274;2024-01-11T13:25:43;95804.22;;;5.52
42119;BMP280;27783;42.782;23.274;2024-01-11T13:28:09;95803.78;;;5.32
42119;BMP280;27783;42.782;23.274;2024-01-11T13:30:40;95807.16;;;4.84
42119;BMP280;27783;42.782;23.274;2024-01-11T13:33:06;95805.97;;;4.82
42119;BMP280;27783;42.782;23.274;2024-01-11T13:35:34;95804.22;;;4.55
42119;BMP280;27783;42.782;23.274;2024-01-11T13:37:59;95799.91;;;4.93
42119;BMP280;27783;42.782;23.274;2024-01-11T13:40:25;95795.06;;;4.76
42119;BMP280;27783;42.782;23.274;2024-01-11T13:42:54;95794.25;;;5.06
42119;BMP280;27783;42.782;23.274;2024-01-11T13:45:19;95787.41;;;5.35
42119;BMP280;27783;42.782;23.274;2024-01-11T13:47:44;95790.41;;;5.18
42119;BMP280;27783;42.782;23.274;2024-01-11T13:50:10;95784.75;;;4.68
42119;BMP280;27783;42.782;23.274;2024-01-11T13:52:35;95783.28;;;4.67
42119;BMP280;27783;42.782;23.274;2024-01-11T13:55:03;95774.91;;;4.62
42119;BMP280;27783;42.782;23.274;2024-01-11T13:57:29;95770.78;;;4.76
42119;BMP280;27783;42.782;23.274;2024-01-11T13:59:55;95764.41;;;4.43
42119;BMP280;27783;42.782;23.274;2024-01-11T14:02:22;95758.41;;;4.58
42119;BMP280;27783;42.782;23.274;2024-01-11T14:04:47;95753.78;;;4.51